createdAt,value
2019-03-30T00:01:57.684Z,102134.00
2019-03-30T00:04:28.045Z,102119.00
2019-03-30T00:06:58.434Z,102122.00
2019-03-30T00:09:28.792Z,102114.00
2019-03-30T00:11:59.169Z,102111.00
2019-03-30T00:14:29.530Z,102104.00
2019-03-30T00:16:59.912Z,102104.00
2019-03-30T00:19:35.072Z,102101.00
2019-03-30T00:22:02.344Z,102101.00
2019-03-30T00:24:32.708Z,102100.00
2019-03-30T00:27:03.090Z,102100.00
2019-03-30T00:29:33.479Z,102096.00
2019-03-30T00:32:03.869Z,102091.00
2019-03-30T00:34:34.224Z,102087.00
2019-03-30T00:37:04.603Z,102093.00
2019-03-30T00:39:34.971Z,102078.00
2019-03-30T00:42:05.355Z,102074.00
2019-03-30T00:44:35.705Z,102079.00
2019-03-30T00:47:06.091Z,102081.00
2019-03-30T00:49:48.354Z,102078.00
2019-03-30T00:52:08.530Z,102077.00
2019-03-30T00:54:38.884Z,102077.00
2019-03-30T00:57:09.270Z,102080.00
2019-03-30T00:59:39.626Z,102078.00
2019-03-30T01:02:10.010Z,102075.00
2019-03-30T01:04:40.361Z,102071.00
2019-03-30T01:07:10.744Z,102076.00
2019-03-30T01:09:41.114Z,102068.00
2019-03-30T01:12:12.400Z,102063.00
2019-03-30T01:14:42.765Z,102072.00
2019-03-30T01:17:13.138Z,102073.00
2019-03-30T01:19:43.497Z,102075.00
2019-03-30T01:22:13.884Z,102073.00
2019-03-30T01:24:44.239Z,102069.00
2019-03-30T01:27:14.625Z,102068.00
2019-03-30T01:29:44.991Z,102056.00
2019-03-30T01:32:15.433Z,102056.00
2019-03-30T01:34:45.730Z,102059.00
2019-03-30T01:37:16.137Z,102056.00
2019-03-30T01:39:46.482Z,102051.00
2019-03-30T01:42:16.867Z,102055.00
2019-03-30T01:44:47.219Z,102051.00
2019-03-30T01:47:18.572Z,102046.00
2019-03-30T01:49:48.962Z,102050.00
2019-03-30T01:52:19.342Z,102040.00
2019-03-30T01:55:09.171Z,102037.00
2019-03-30T01:57:39.554Z,102035.00
2019-03-30T02:00:11.091Z,102041.00
2019-03-30T02:02:41.472Z,102040.00
2019-03-30T02:05:12.169Z,102040.00
2019-03-30T02:07:43.518Z,102037.00
2019-03-30T02:10:15.751Z,102032.00
2019-03-30T02:12:46.153Z,102032.00
2019-03-30T02:15:16.945Z,102035.00
2019-03-30T02:17:47.326Z,102028.00
2019-03-30T02:20:30.939Z,102028.00
2019-03-30T02:23:00.130Z,102021.00
2019-03-30T02:25:30.485Z,102024.00
2019-03-30T02:28:00.862Z,102027.00
2019-03-30T02:30:31.227Z,102031.00
2019-03-30T02:33:01.602Z,102028.00
2019-03-30T02:35:33.038Z,102029.00
2019-03-30T02:38:03.423Z,102026.00
2019-03-30T02:40:33.778Z,102021.00
2019-03-30T02:43:04.339Z,102024.00
2019-03-30T02:45:34.703Z,102025.00
2019-03-30T02:48:05.079Z,102013.00
2019-03-30T02:50:48.516Z,102011.00
2019-03-30T02:53:07.644Z,102019.00
2019-03-30T02:55:37.975Z,102022.00
2019-03-30T02:58:08.982Z,102016.00
2019-03-30T03:00:39.421Z,102016.00
2019-03-30T03:03:09.818Z,102014.00
2019-03-30T03:05:40.276Z,102013.00
2019-03-30T03:08:10.621Z,102006.00
2019-03-30T03:10:40.978Z,102000.00
2019-03-30T03:13:11.382Z,101999.00
2019-03-30T03:15:41.739Z,101994.00
2019-03-30T03:18:12.077Z,101992.00
2019-03-30T03:20:42.627Z,101989.00
2019-03-30T03:23:12.992Z,101992.00
2019-03-30T03:25:43.391Z,101989.00
2019-03-30T03:28:14.723Z,101993.00
2019-03-30T03:30:45.109Z,101991.00
2019-03-30T03:33:15.574Z,101984.00
2019-03-30T03:35:45.947Z,101977.00
2019-03-30T03:38:16.310Z,101980.00
2019-03-30T03:40:46.699Z,101987.00
2019-03-30T03:43:17.073Z,101983.00
2019-03-30T03:45:47.634Z,101979.00
2019-03-30T03:48:17.973Z,101982.00
2019-03-30T03:50:52.609Z,101973.00
2019-03-30T03:53:42.312Z,101976.00
2019-03-30T03:56:15.104Z,101977.00
2019-03-30T03:58:48.526Z,101974.00
2019-03-30T04:01:22.930Z,101968.00
2019-03-30T04:03:56.260Z,101966.00
2019-03-30T04:06:29.663Z,101964.00
2019-03-30T04:09:04.406Z,101967.00
2019-03-30T04:11:37.922Z,101960.00
2019-03-30T04:14:12.035Z,101953.00
2019-03-30T04:16:42.587Z,101959.00
2019-03-30T04:19:12.939Z,101961.00
2019-03-30T04:21:44.964Z,101955.00
2019-03-30T04:24:15.593Z,101950.00
2019-03-30T04:26:45.984Z,101963.00
2019-03-30T04:29:16.350Z,101963.00
2019-03-30T04:31:46.722Z,101961.00
2019-03-30T04:34:17.092Z,101963.00
2019-03-30T04:36:47.466Z,101965.00
2019-03-30T04:39:17.836Z,101958.00
2019-03-30T04:41:48.213Z,101961.00
2019-03-30T04:44:18.579Z,101951.00
2019-03-30T04:46:48.971Z,101956.00
2019-03-30T04:49:19.326Z,101945.00
2019-03-30T04:51:57.555Z,101950.00
2019-03-30T04:54:21.767Z,101948.00
2019-03-30T04:56:52.153Z,101944.00
2019-03-30T04:59:22.519Z,101939.00
2019-03-30T05:01:52.901Z,101939.00
2019-03-30T05:04:23.254Z,101930.00
2019-03-30T05:06:53.629Z,101924.00
2019-03-30T05:09:27.093Z,101920.00
2019-03-30T05:11:57.477Z,101920.00
2019-03-30T05:14:27.831Z,101924.00
2019-03-30T05:16:58.210Z,101920.00
2019-03-30T05:19:28.566Z,101923.00
2019-03-30T05:22:11.414Z,101926.00
2019-03-30T05:24:31.979Z,101924.00
2019-03-30T05:27:02.366Z,101923.00
2019-03-30T05:29:33.686Z,101930.00
2019-03-30T05:32:04.078Z,101939.00
2019-03-30T05:34:34.431Z,101933.00
2019-03-30T05:37:04.808Z,101936.00
2019-03-30T05:39:35.227Z,101932.00
2019-03-30T05:42:05.602Z,101933.00
2019-03-30T05:44:35.953Z,101931.00
2019-03-30T05:47:06.330Z,101929.00
2019-03-30T05:49:36.694Z,101930.00
2019-03-30T05:52:07.071Z,101938.00
2019-03-30T05:54:37.489Z,101927.00
2019-03-30T05:57:07.871Z,101936.00
2019-03-30T05:59:38.226Z,101934.00
2019-03-30T06:02:08.601Z,101927.00
2019-03-30T06:04:38.959Z,101915.00
2019-03-30T06:07:09.345Z,101928.00
2019-03-30T06:09:39.711Z,101922.00
2019-03-30T06:12:10.100Z,101914.00
2019-03-30T06:14:40.453Z,101908.00
2019-03-30T06:17:10.838Z,101913.00
2019-03-30T06:19:41.280Z,101923.00
2019-03-30T06:22:11.657Z,101914.00
2019-03-30T06:24:42.009Z,101911.00
2019-03-30T06:27:12.386Z,101908.00
2019-03-30T06:29:42.741Z,101901.00
2019-03-30T06:32:13.131Z,101904.00
2019-03-30T06:34:43.504Z,101896.00
2019-03-30T06:37:13.905Z,101909.00
2019-03-30T06:39:44.268Z,101911.00
2019-03-30T06:42:14.655Z,101909.00
2019-03-30T06:44:52.537Z,101908.00
2019-03-30T06:47:22.924Z,101898.00
2019-03-30T06:49:53.288Z,101903.00
2019-03-30T06:52:23.690Z,101902.00
2019-03-30T06:54:54.060Z,101903.00
2019-03-30T06:57:24.521Z,101910.00
2019-03-30T06:59:54.900Z,101902.00
2019-03-30T07:02:36.110Z,101906.00
2019-03-30T07:05:09.095Z,101895.00
2019-03-30T07:07:39.915Z,101900.00
2019-03-30T07:10:10.279Z,101897.00
2019-03-30T07:12:42.380Z,101897.00
2019-03-30T07:15:14.019Z,101896.00
2019-03-30T07:17:47.189Z,101891.00
2019-03-30T07:20:29.531Z,101890.00
2019-03-30T07:23:11.108Z,101892.00
2019-03-30T07:25:32.960Z,101884.00
2019-03-30T07:28:04.320Z,101894.00
2019-03-30T07:30:34.696Z,101889.00
2019-03-30T07:33:05.082Z,101894.00
2019-03-30T07:35:35.449Z,101888.00
2019-03-30T07:38:05.848Z,101893.00
2019-03-30T07:40:36.217Z,101883.00
2019-03-30T07:43:07.588Z,101887.00
2019-03-30T07:45:37.967Z,101895.00
2019-03-30T07:48:08.354Z,101890.00
2019-03-30T07:50:38.731Z,101888.00
2019-03-30T07:53:09.132Z,101893.00
2019-03-30T07:55:39.512Z,101896.00
2019-03-30T07:58:10.037Z,101891.00
2019-03-30T08:00:40.451Z,101888.00
2019-03-30T08:03:10.840Z,101900.00
2019-03-30T08:05:42.826Z,101896.00
2019-03-30T08:08:13.283Z,101894.00
2019-03-30T08:10:43.660Z,101889.00
2019-03-30T08:13:14.130Z,101891.00
2019-03-30T08:15:44.510Z,101895.00
2019-03-30T08:18:14.923Z,101887.00
2019-03-30T08:20:45.277Z,101882.00
2019-03-30T08:23:15.665Z,101878.00
2019-03-30T08:25:46.062Z,101885.00
2019-03-30T08:28:16.506Z,101890.00
2019-03-30T08:30:46.906Z,101882.00
2019-03-30T08:33:17.273Z,101878.00
2019-03-30T08:35:47.658Z,101871.00
2019-03-30T08:38:18.037Z,101879.00
2019-03-30T08:40:48.449Z,101870.00
2019-03-30T08:43:44.147Z,101875.00
2019-03-30T08:52:29.556Z,101870.00
2019-03-30T08:54:59.950Z,101869.00
2019-03-30T08:57:30.331Z,101862.00
2019-03-30T09:00:00.770Z,101860.00
2019-03-30T09:02:31.153Z,101857.00
2019-03-30T09:05:01.542Z,101860.00
2019-03-30T09:07:31.917Z,101848.00
2019-03-30T09:10:02.305Z,101849.00
2019-03-30T09:12:32.684Z,101848.00
2019-03-30T09:15:03.540Z,101841.00
2019-03-30T09:17:37.139Z,101842.00
2019-03-30T09:20:08.412Z,101830.00
2019-03-30T09:22:39.098Z,101840.00
2019-03-30T09:25:10.538Z,101831.00
2019-03-30T09:27:47.137Z,101823.00
2019-03-30T09:30:32.332Z,101823.00
2019-03-30T09:41:28.300Z,101814.00
2019-03-30T09:44:00.028Z,101815.00
2019-03-30T09:46:32.746Z,101809.00
2019-03-30T09:49:04.629Z,101810.00
2019-03-30T09:51:39.138Z,101801.00
2019-03-30T09:54:23.495Z,101803.00
2019-03-30T09:56:52.110Z,101796.00
2019-03-30T09:59:25.954Z,101794.00
2019-03-30T10:01:57.987Z,101798.00
2019-03-30T10:04:32.579Z,101801.00
2019-03-30T10:07:09.037Z,101799.00
2019-03-30T10:09:48.631Z,101783.00
2019-03-30T10:15:02.889Z,101788.00
2019-03-30T10:17:40.916Z,101793.00
2019-03-30T10:23:05.199Z,101787.00
2019-03-30T10:25:36.188Z,101775.00
2019-03-30T10:28:06.571Z,101779.00
2019-03-30T10:30:36.980Z,101768.00
2019-03-30T10:33:07.405Z,101756.00
2019-03-30T10:35:37.823Z,101756.00
2019-03-30T10:38:08.232Z,101754.00
2019-03-30T10:40:38.791Z,101739.00
2019-03-30T10:43:09.256Z,101748.00
2019-03-30T10:45:39.756Z,101746.00
2019-03-30T10:48:10.177Z,101750.00
2019-03-30T10:50:40.561Z,101742.00
2019-03-30T10:53:10.981Z,101737.00
2019-03-30T10:55:41.374Z,101736.00
2019-03-30T10:58:11.986Z,101728.00
2019-03-30T11:00:44.028Z,101730.00
2019-03-30T11:06:06.014Z,101728.00
2019-03-30T12:33:29.287Z,101585.00
2019-03-30T12:36:05.814Z,101586.00
2019-03-30T13:59:58.417Z,101519.00
2019-03-30T14:02:28.901Z,101514.00
2019-03-30T14:07:53.461Z,101508.00
2019-03-30T14:13:14.100Z,101497.00
2019-03-30T14:18:34.283Z,101498.00
2019-03-30T14:24:15.606Z,101485.00
2019-03-30T14:27:03.345Z,101479.00
2019-03-30T14:29:44.006Z,101480.00
2019-03-30T15:00:13.930Z,101428.00
2019-03-30T15:02:53.503Z,101421.00
2019-03-30T15:16:23.799Z,101413.00
2019-03-30T15:18:59.486Z,101407.00
2019-03-30T16:10:11.115Z,101357.00
